Eagle Point, Iowa
Current Conditions -  °F | °C
As of 6:53 PM on Monday 20 Oct 2014 (Local Time) from KDBQ Reporting Station
Clear Clear  
Wind Chill: 53°   Ceiling: Unl
Heat Index: 53°   Visibility: 10mi
Dew Point: 42°   Wind: 7mph
Humidity: 66%   Direction: 330°NNW
Pressure: 29.97"   Gusts: NA
Location:  42.549°N, 90.6988°W
Report Text: KDBQ 202353Z 33006KT 10SM CLR 12/06 A2997 RMK AO2 SLP153 T01170056 10178 20111 53014
Loading
Personal Weather Stations






























Interactive Weather Map
Tropical Storm Tracking
New forecast layout! Learn more

10-Day Weather Forecast

Advertisements
Track Severe Weather on mobile